sensor_id;sensor_type;location;lat;lon;timestamp;P1;durP1;ratioP1;P2;durP2;ratioP2
12871;SDS011;6504;53.766;9.626;2022-12-05T00:01:29;29.63;;;22.77;;
12871;SDS011;6504;53.766;9.626;2022-12-05T00:04:00;27.87;;;22.27;;
12871;SDS011;6504;53.766;9.626;2022-12-05T00:06:30;29.70;;;22.60;;
12871;SDS011;6504;53.766;9.626;2022-12-05T00:09:00;28.47;;;22.80;;
12871;SDS011;6504;53.766;9.626;2022-12-05T00:11:29;28.93;;;23.07;;
12871;SDS011;6504;53.766;9.626;2022-12-05T00:14:00;30.43;;;23.73;;
12871;SDS011;6504;53.766;9.626;2022-12-05T00:16:30;29.63;;;22.70;;
12871;SDS011;6504;53.766;9.626;2022-12-05T00:18:59;30.37;;;23.03;;
12871;SDS011;6504;53.766;9.626;2022-12-05T00:21:29;27.57;;;22.40;;
12871;SDS011;6504;53.766;9.626;2022-12-05T00:23:59;32.47;;;23.03;;
12871;SDS011;6504;53.766;9.626;2022-12-05T00:26:28;32.00;;;23.50;;
12871;SDS011;6504;53.766;9.626;2022-12-05T00:28:57;32.07;;;23.07;;
12871;SDS011;6504;53.766;9.626;2022-12-05T00:31:27;30.90;;;23.20;;
12871;SDS011;6504;53.766;9.626;2022-12-05T00:33:55;30.07;;;23.83;;
12871;SDS011;6504;53.766;9.626;2022-12-05T00:36:27;32.50;;;23.50;;
12871;SDS011;6504;53.766;9.626;2022-12-05T00:38:57;27.17;;;21.83;;
12871;SDS011;6504;53.766;9.626;2022-12-05T00:41:26;24.97;;;20.60;;
12871;SDS011;6504;53.766;9.626;2022-12-05T00:43:55;28.37;;;19.80;;
12871;SDS011;6504;53.766;9.626;2022-12-05T00:46:27;26.90;;;20.10;;
12871;SDS011;6504;53.766;9.626;2022-12-05T00:48:57;23.00;;;19.17;;
12871;SDS011;6504;53.766;9.626;2022-12-05T00:51:26;23.87;;;18.80;;
12871;SDS011;6504;53.766;9.626;2022-12-05T00:53:56;21.53;;;17.37;;
12871;SDS011;6504;53.766;9.626;2022-12-05T00:56:26;21.07;;;18.37;;
12871;SDS011;6504;53.766;9.626;2022-12-05T00:58:55;20.40;;;16.70;;
12871;SDS011;6504;53.766;9.626;2022-12-05T01:01:27;18.87;;;15.67;;
12871;SDS011;6504;53.766;9.626;2022-12-05T01:03:58;20.50;;;15.73;;
12871;SDS011;6504;53.766;9.626;2022-12-05T01:06:32;18.83;;;15.20;;
12871;SDS011;6504;53.766;9.626;2022-12-05T01:09:00;17.17;;;15.33;;
12871;SDS011;6504;53.766;9.626;2022-12-05T01:11:29;19.43;;;16.17;;
12871;SDS011;6504;53.766;9.626;2022-12-05T01:14:06;19.70;;;15.17;;
12871;SDS011;6504;53.766;9.626;2022-12-05T01:16:36;17.60;;;14.93;;
12871;SDS011;6504;53.766;9.626;2022-12-05T01:19:06;20.30;;;16.47;;
12871;SDS011;6504;53.766;9.626;2022-12-05T01:21:35;18.80;;;14.93;;
12871;SDS011;6504;53.766;9.626;2022-12-05T01:24:04;19.47;;;16.13;;
12871;SDS011;6504;53.766;9.626;2022-12-05T01:26:32;19.90;;;16.60;;
12871;SDS011;6504;53.766;9.626;2022-12-05T01:29:00;19.87;;;16.17;;
12871;SDS011;6504;53.766;9.626;2022-12-05T01:31:29;21.60;;;16.40;;
12871;SDS011;6504;53.766;9.626;2022-12-05T01:34:00;18.50;;;15.70;;
12871;SDS011;6504;53.766;9.626;2022-12-05T01:36:30;20.27;;;15.67;;
12871;SDS011;6504;53.766;9.626;2022-12-05T01:38:58;19.47;;;16.10;;
12871;SDS011;6504;53.766;9.626;2022-12-05T01:41:27;18.70;;;16.07;;
12871;SDS011;6504;53.766;9.626;2022-12-05T01:43:58;23.33;;;16.93;;
12871;SDS011;6504;53.766;9.626;2022-12-05T01:46:28;20.77;;;15.87;;
12871;SDS011;6504;53.766;9.626;2022-12-05T01:49:00;22.10;;;17.33;;
12871;SDS011;6504;53.766;9.626;2022-12-05T01:51:34;24.43;;;18.63;;
12871;SDS011;6504;53.766;9.626;2022-12-05T01:54:04;21.33;;;17.37;;
12871;SDS011;6504;53.766;9.626;2022-12-05T01:56:34;24.67;;;19.37;;
12871;SDS011;6504;53.766;9.626;2022-12-05T01:59:03;23.77;;;18.73;;
12871;SDS011;6504;53.766;9.626;2022-12-05T02:01:34;22.77;;;17.27;;
12871;SDS011;6504;53.766;9.626;2022-12-05T02:04:03;21.53;;;17.60;;
12871;SDS011;6504;53.766;9.626;2022-12-05T02:06:33;22.03;;;16.73;;
12871;SDS011;6504;53.766;9.626;2022-12-05T02:09:01;20.00;;;15.60;;
12871;SDS011;6504;53.766;9.626;2022-12-05T02:11:29;19.33;;;15.03;;
12871;SDS011;6504;53.766;9.626;2022-12-05T02:14:04;20.93;;;15.23;;
12871;SDS011;6504;53.766;9.626;2022-12-05T02:16:46;18.87;;;15.27;;
12871;SDS011;6504;53.766;9.626;2022-12-05T02:19:46;17.93;;;14.13;;
12871;SDS011;6504;53.766;9.626;2022-12-05T02:22:26;17.30;;;14.00;;
12871;SDS011;6504;53.766;9.626;2022-12-05T02:25:39;17.83;;;13.77;;
12871;SDS011;6504;53.766;9.626;2022-12-05T02:28:29;16.10;;;13.33;;
12871;SDS011;6504;53.766;9.626;2022-12-05T02:31:23;15.00;;;12.87;;
12871;SDS011;6504;53.766;9.626;2022-12-05T02:33:58;16.37;;;13.03;;
12871;SDS011;6504;53.766;9.626;2022-12-05T02:36:33;17.93;;;13.10;;
12871;SDS011;6504;53.766;9.626;2022-12-05T02:39:07;15.07;;;12.43;;
12871;SDS011;6504;53.766;9.626;2022-12-05T02:41:43;17.03;;;12.43;;
12871;SDS011;6504;53.766;9.626;2022-12-05T02:44:16;14.73;;;11.93;;
12871;SDS011;6504;53.766;9.626;2022-12-05T02:46:50;16.17;;;12.10;;
12871;SDS011;6504;53.766;9.626;2022-12-05T02:49:21;15.03;;;12.63;;
12871;SDS011;6504;53.766;9.626;2022-12-05T02:51:52;13.47;;;11.93;;
12871;SDS011;6504;53.766;9.626;2022-12-05T02:54:24;12.47;;;10.73;;
12871;SDS011;6504;53.766;9.626;2022-12-05T02:56:55;12.63;;;10.43;;
12871;SDS011;6504;53.766;9.626;2022-12-05T02:59:24;10.77;;;9.67;;
12871;SDS011;6504;53.766;9.626;2022-12-05T03:01:54;9.60;;;8.37;;
12871;SDS011;6504;53.766;9.626;2022-12-05T03:04:23;9.03;;;7.80;;
12871;SDS011;6504;53.766;9.626;2022-12-05T03:06:53;7.90;;;6.70;;
12871;SDS011;6504;53.766;9.626;2022-12-05T03:09:24;7.03;;;6.23;;
12871;SDS011;6504;53.766;9.626;2022-12-05T03:11:57;6.53;;;5.33;;
12871;SDS011;6504;53.766;9.626;2022-12-05T03:14:34;7.17;;;5.53;;
12871;SDS011;6504;53.766;9.626;2022-12-05T03:17:08;6.00;;;5.40;;
12871;SDS011;6504;53.766;9.626;2022-12-05T03:19:41;5.57;;;4.10;;
12871;SDS011;6504;53.766;9.626;2022-12-05T03:22:16;4.97;;;4.07;;
12871;SDS011;6504;53.766;9.626;2022-12-05T03:24:50;4.73;;;4.33;;
12871;SDS011;6504;53.766;9.626;2022-12-05T03:27:20;4.53;;;4.13;;
12871;SDS011;6504;53.766;9.626;2022-12-05T03:29:53;5.20;;;4.37;;
12871;SDS011;6504;53.766;9.626;2022-12-05T03:32:29;6.23;;;5.60;;
12871;SDS011;6504;53.766;9.626;2022-12-05T03:35:05;5.03;;;4.53;;
12871;SDS011;6504;53.766;9.626;2022-12-05T03:37:42;6.70;;;4.77;;
12871;SDS011;6504;53.766;9.626;2022-12-05T03:40:17;6.10;;;4.47;;
12871;SDS011;6504;53.766;9.626;2022-12-05T03:42:51;5.27;;;4.77;;
12871;SDS011;6504;53.766;9.626;2022-12-05T03:45:26;5.23;;;4.07;;
12871;SDS011;6504;53.766;9.626;2022-12-05T03:48:02;5.53;;;4.87;;
12871;SDS011;6504;53.766;9.626;2022-12-05T03:50:37;6.07;;;4.50;;
12871;SDS011;6504;53.766;9.626;2022-12-05T03:53:09;4.97;;;4.47;;
12871;SDS011;6504;53.766;9.626;2022-12-05T03:55:46;6.30;;;4.17;;
12871;SDS011;6504;53.766;9.626;2022-12-05T03:58:21;5.37;;;4.40;;
12871;SDS011;6504;53.766;9.626;2022-12-05T04:00:55;4.77;;;4.27;;
12871;SDS011;6504;53.766;9.626;2022-12-05T04:03:27;5.57;;;4.60;;
12871;SDS011;6504;53.766;9.626;2022-12-05T04:06:05;5.07;;;4.27;;
12871;SDS011;6504;53.766;9.626;2022-12-05T04:08:40;5.20;;;4.50;;
12871;SDS011;6504;53.766;9.626;2022-12-05T04:11:13;5.77;;;4.43;;
12871;SDS011;6504;53.766;9.626;2022-12-05T04:13:45;4.50;;;3.97;;
12871;SDS011;6504;53.766;9.626;2022-12-05T04:16:16;4.63;;;4.23;;
12871;SDS011;6504;53.766;9.626;2022-12-05T04:19:21;5.63;;;4.57;;
12871;SDS011;6504;53.766;9.626;2022-12-05T04:21:55;6.23;;;4.07;;
12871;SDS011;6504;53.766;9.626;2022-12-05T04:24:23;5.20;;;4.70;;
12871;SDS011;6504;53.766;9.626;2022-12-05T04:27:15;5.27;;;4.40;;
12871;SDS011;6504;53.766;9.626;2022-12-05T04:29:51;5.97;;;4.50;;
12871;SDS011;6504;53.766;9.626;2022-12-05T04:32:25;4.73;;;4.23;;
12871;SDS011;6504;53.766;9.626;2022-12-05T04:35:00;6.40;;;4.47;;
12871;SDS011;6504;53.766;9.626;2022-12-05T04:37:33;5.47;;;4.63;;
12871;SDS011;6504;53.766;9.626;2022-12-05T04:40:07;4.73;;;4.27;;
12871;SDS011;6504;53.766;9.626;2022-12-05T04:42:38;4.77;;;4.37;;
12871;SDS011;6504;53.766;9.626;2022-12-05T04:45:09;4.80;;;4.33;;
12871;SDS011;6504;53.766;9.626;2022-12-05T04:47:42;4.90;;;4.40;;
12871;SDS011;6504;53.766;9.626;2022-12-05T04:50:14;4.53;;;4.03;;
12871;SDS011;6504;53.766;9.626;2022-12-05T04:52:44;5.40;;;4.90;;
12871;SDS011;6504;53.766;9.626;2022-12-05T04:55:15;6.03;;;4.80;;
12871;SDS011;6504;53.766;9.626;2022-12-05T04:57:53;5.33;;;4.67;;
12871;SDS011;6504;53.766;9.626;2022-12-05T05:00:27;6.30;;;5.23;;
12871;SDS011;6504;53.766;9.626;2022-12-05T05:02:58;6.17;;;4.97;;
12871;SDS011;6504;53.766;9.626;2022-12-05T05:05:31;5.20;;;4.70;;
12871;SDS011;6504;53.766;9.626;2022-12-05T05:08:01;5.13;;;4.63;;
12871;SDS011;6504;53.766;9.626;2022-12-05T05:10:31;5.27;;;4.77;;
12871;SDS011;6504;53.766;9.626;2022-12-05T05:13:01;5.63;;;4.90;;
12871;SDS011;6504;53.766;9.626;2022-12-05T05:15:29;6.87;;;5.80;;
12871;SDS011;6504;53.766;9.626;2022-12-05T05:17:57;6.53;;;5.90;;
12871;SDS011;6504;53.766;9.626;2022-12-05T05:20:25;5.63;;;5.13;;
12871;SDS011;6504;53.766;9.626;2022-12-05T05:22:55;7.10;;;5.67;;
12871;SDS011;6504;53.766;9.626;2022-12-05T05:25:24;6.97;;;5.87;;
12871;SDS011;6504;53.766;9.626;2022-12-05T05:27:52;7.90;;;6.53;;
12871;SDS011;6504;53.766;9.626;2022-12-05T05:30:22;6.70;;;6.00;;
12871;SDS011;6504;53.766;9.626;2022-12-05T05:32:51;7.33;;;6.07;;
12871;SDS011;6504;53.766;9.626;2022-12-05T05:35:19;7.60;;;6.57;;
12871;SDS011;6504;53.766;9.626;2022-12-05T05:37:47;7.03;;;6.33;;
12871;SDS011;6504;53.766;9.626;2022-12-05T05:40:17;6.20;;;5.63;;
12871;SDS011;6504;53.766;9.626;2022-12-05T05:42:46;7.00;;;6.23;;
12871;SDS011;6504;53.766;9.626;2022-12-05T05:45:15;7.00;;;6.30;;
12871;SDS011;6504;53.766;9.626;2022-12-05T05:47:44;7.00;;;6.20;;
12871;SDS011;6504;53.766;9.626;2022-12-05T05:50:14;5.93;;;5.43;;
12871;SDS011;6504;53.766;9.626;2022-12-05T05:52:47;6.53;;;5.83;;
12871;SDS011;6504;53.766;9.626;2022-12-05T05:55:16;7.83;;;6.67;;
12871;SDS011;6504;53.766;9.626;2022-12-05T05:57:44;7.03;;;6.43;;
12871;SDS011;6504;53.766;9.626;2022-12-05T06:00:13;6.93;;;6.23;;
12871;SDS011;6504;53.766;9.626;2022-12-05T06:02:42;8.23;;;6.07;;
12871;SDS011;6504;53.766;9.626;2022-12-05T06:05:10;7.63;;;6.53;;
12871;SDS011;6504;53.766;9.626;2022-12-05T06:07:38;6.57;;;5.97;;
12871;SDS011;6504;53.766;9.626;2022-12-05T06:10:06;7.70;;;6.20;;
12871;SDS011;6504;53.766;9.626;2022-12-05T06:12:36;6.90;;;6.20;;
12871;SDS011;6504;53.766;9.626;2022-12-05T06:15:05;7.90;;;7.10;;
12871;SDS011;6504;53.766;9.626;2022-12-05T06:17:34;7.40;;;6.00;;
12871;SDS011;6504;53.766;9.626;2022-12-05T06:20:02;6.73;;;5.70;;
12871;SDS011;6504;53.766;9.626;2022-12-05T06:22:31;7.33;;;6.63;;
12871;SDS011;6504;53.766;9.626;2022-12-05T06:24:59;6.73;;;5.97;;
12871;SDS011;6504;53.766;9.626;2022-12-05T06:27:28;6.83;;;6.17;;
12871;SDS011;6504;53.766;9.626;2022-12-05T06:29:58;7.53;;;6.80;;
12871;SDS011;6504;53.766;9.626;2022-12-05T06:32:26;9.40;;;8.10;;
12871;SDS011;6504;53.766;9.626;2022-12-05T06:34:55;10.43;;;8.43;;
12871;SDS011;6504;53.766;9.626;2022-12-05T06:37:23;11.80;;;9.30;;
12871;SDS011;6504;53.766;9.626;2022-12-05T06:39:51;16.20;;;10.50;;
12871;SDS011;6504;53.766;9.626;2022-12-05T06:42:19;13.30;;;10.43;;
12871;SDS011;6504;53.766;9.626;2022-12-05T06:44:48;13.40;;;10.70;;
12871;SDS011;6504;53.766;9.626;2022-12-05T06:47:17;17.10;;;12.30;;
12871;SDS011;6504;53.766;9.626;2022-12-05T06:49:45;20.90;;;14.77;;
12871;SDS011;6504;53.766;9.626;2022-12-05T06:52:13;21.63;;;15.13;;
12871;SDS011;6504;53.766;9.626;2022-12-05T06:54:41;26.43;;;17.47;;
12871;SDS011;6504;53.766;9.626;2022-12-05T06:57:09;24.77;;;16.40;;
12871;SDS011;6504;53.766;9.626;2022-12-05T06:59:37;30.17;;;19.47;;
12871;SDS011;6504;53.766;9.626;2022-12-05T07:02:05;30.30;;;19.53;;
12871;SDS011;6504;53.766;9.626;2022-12-05T07:04:35;30.33;;;18.60;;
12871;SDS011;6504;53.766;9.626;2022-12-05T07:07:03;32.10;;;20.80;;
12871;SDS011;6504;53.766;9.626;2022-12-05T07:09:31;28.93;;;18.67;;
12871;SDS011;6504;53.766;9.626;2022-12-05T07:12:19;33.63;;;19.73;;
12871;SDS011;6504;53.766;9.626;2022-12-05T07:14:47;35.00;;;21.80;;
12871;SDS011;6504;53.766;9.626;2022-12-05T07:17:15;34.33;;;21.13;;
12871;SDS011;6504;53.766;9.626;2022-12-05T07:19:47;37.47;;;22.63;;
12871;SDS011;6504;53.766;9.626;2022-12-05T07:22:15;38.73;;;22.80;;
12871;SDS011;6504;53.766;9.626;2022-12-05T07:24:44;40.00;;;23.10;;
12871;SDS011;6504;53.766;9.626;2022-12-05T07:27:13;39.37;;;23.43;;
12871;SDS011;6504;53.766;9.626;2022-12-05T07:29:47;37.87;;;22.97;;
12871;SDS011;6504;53.766;9.626;2022-12-05T07:32:15;44.43;;;24.83;;
12871;SDS011;6504;53.766;9.626;2022-12-05T07:34:43;39.93;;;24.13;;
12871;SDS011;6504;53.766;9.626;2022-12-05T07:37:20;38.00;;;23.23;;
12871;SDS011;6504;53.766;9.626;2022-12-05T07:39:48;41.33;;;23.43;;
12871;SDS011;6504;53.766;9.626;2022-12-05T07:42:17;40.17;;;23.80;;
12871;SDS011;6504;53.766;9.626;2022-12-05T07:44:45;36.17;;;23.07;;
12871;SDS011;6504;53.766;9.626;2022-12-05T07:47:13;37.43;;;22.43;;
12871;SDS011;6504;53.766;9.626;2022-12-05T07:49:41;39.30;;;21.80;;
12871;SDS011;6504;53.766;9.626;2022-12-05T07:52:09;33.53;;;20.80;;
12871;SDS011;6504;53.766;9.626;2022-12-05T07:54:39;36.97;;;21.93;;
12871;SDS011;6504;53.766;9.626;2022-12-05T07:57:07;38.40;;;20.80;;
12871;SDS011;6504;53.766;9.626;2022-12-05T07:59:35;37.07;;;22.83;;
12871;SDS011;6504;53.766;9.626;2022-12-05T08:02:03;32.63;;;20.87;;
12871;SDS011;6504;53.766;9.626;2022-12-05T08:04:31;37.73;;;22.30;;
12871;SDS011;6504;53.766;9.626;2022-12-05T08:06:59;35.57;;;22.00;;
12871;SDS011;6504;53.766;9.626;2022-12-05T08:09:27;35.83;;;22.27;;
12871;SDS011;6504;53.766;9.626;2022-12-05T08:11:56;35.23;;;20.77;;
12871;SDS011;6504;53.766;9.626;2022-12-05T08:14:24;34.73;;;21.07;;
12871;SDS011;6504;53.766;9.626;2022-12-05T08:16:55;36.47;;;21.00;;
12871;SDS011;6504;53.766;9.626;2022-12-05T08:19:23;35.80;;;21.83;;
12871;SDS011;6504;53.766;9.626;2022-12-05T08:21:52;34.33;;;20.20;;
12871;SDS011;6504;53.766;9.626;2022-12-05T08:24:20;36.47;;;22.17;;
12871;SDS011;6504;53.766;9.626;2022-12-05T08:26:50;32.17;;;19.97;;
12871;SDS011;6504;53.766;9.626;2022-12-05T08:29:20;35.40;;;21.73;;
12871;SDS011;6504;53.766;9.626;2022-12-05T08:31:49;33.47;;;21.03;;
12871;SDS011;6504;53.766;9.626;2022-12-05T08:34:18;34.47;;;21.67;;
12871;SDS011;6504;53.766;9.626;2022-12-05T08:36:47;35.17;;;21.07;;
12871;SDS011;6504;53.766;9.626;2022-12-05T08:39:15;35.97;;;21.67;;
12871;SDS011;6504;53.766;9.626;2022-12-05T08:41:45;31.77;;;20.40;;
12871;SDS011;6504;53.766;9.626;2022-12-05T08:44:14;39.17;;;23.03;;
12871;SDS011;6504;53.766;9.626;2022-12-05T08:46:45;38.30;;;22.53;;
12871;SDS011;6504;53.766;9.626;2022-12-05T08:49:14;39.33;;;23.17;;
12871;SDS011;6504;53.766;9.626;2022-12-05T08:51:43;39.43;;;23.27;;
12871;SDS011;6504;53.766;9.626;2022-12-05T08:54:11;42.07;;;24.97;;
12871;SDS011;6504;53.766;9.626;2022-12-05T08:56:39;37.97;;;23.43;;
12871;SDS011;6504;53.766;9.626;2022-12-05T08:59:07;40.73;;;23.87;;
12871;SDS011;6504;53.766;9.626;2022-12-05T09:01:35;40.20;;;23.77;;
12871;SDS011;6504;53.766;9.626;2022-12-05T09:04:06;40.33;;;24.63;;
12871;SDS011;6504;53.766;9.626;2022-12-05T09:06:35;45.40;;;25.03;;
12871;SDS011;6504;53.766;9.626;2022-12-05T09:09:05;42.00;;;24.50;;
12871;SDS011;6504;53.766;9.626;2022-12-05T09:11:37;46.67;;;27.07;;
12871;SDS011;6504;53.766;9.626;2022-12-05T09:14:11;47.77;;;26.73;;
12871;SDS011;6504;53.766;9.626;2022-12-05T09:16:42;50.33;;;26.17;;
12871;SDS011;6504;53.766;9.626;2022-12-05T09:19:13;50.10;;;27.70;;
12871;SDS011;6504;53.766;9.626;2022-12-05T09:21:43;51.10;;;27.43;;
12871;SDS011;6504;53.766;9.626;2022-12-05T09:24:11;59.03;;;28.63;;
12871;SDS011;6504;53.766;9.626;2022-12-05T09:26:40;58.03;;;29.90;;
12871;SDS011;6504;53.766;9.626;2022-12-05T09:29:09;55.07;;;29.60;;
12871;SDS011;6504;53.766;9.626;2022-12-05T09:31:43;58.47;;;31.20;;
12871;SDS011;6504;53.766;9.626;2022-12-05T09:34:14;55.60;;;29.33;;
12871;SDS011;6504;53.766;9.626;2022-12-05T09:36:43;55.63;;;29.57;;
12871;SDS011;6504;53.766;9.626;2022-12-05T09:39:14;52.27;;;28.20;;
12871;SDS011;6504;53.766;9.626;2022-12-05T09:41:53;50.93;;;26.97;;
12871;SDS011;6504;53.766;9.626;2022-12-05T09:44:43;52.93;;;27.87;;
12871;SDS011;6504;53.766;9.626;2022-12-05T09:47:28;52.70;;;28.10;;
12871;SDS011;6504;53.766;9.626;2022-12-05T09:50:03;57.43;;;28.00;;
12871;SDS011;6504;53.766;9.626;2022-12-05T09:52:42;57.47;;;29.47;;
12871;SDS011;6504;53.766;9.626;2022-12-05T09:55:13;55.93;;;30.30;;
12871;SDS011;6504;53.766;9.626;2022-12-05T09:57:43;62.13;;;29.83;;
12871;SDS011;6504;53.766;9.626;2022-12-05T10:00:15;56.53;;;29.63;;
12871;SDS011;6504;53.766;9.626;2022-12-05T10:02:46;51.80;;;29.07;;
12871;SDS011;6504;53.766;9.626;2022-12-05T10:05:23;61.93;;;30.27;;
12871;SDS011;6504;53.766;9.626;2022-12-05T10:07:59;61.00;;;29.87;;
12871;SDS011;6504;53.766;9.626;2022-12-05T10:10:33;61.30;;;31.17;;
12871;SDS011;6504;53.766;9.626;2022-12-05T10:13:16;55.33;;;30.40;;
12871;SDS011;6504;53.766;9.626;2022-12-05T10:15:51;57.90;;;30.33;;
12871;SDS011;6504;53.766;9.626;2022-12-05T10:18:26;55.87;;;29.03;;
12871;SDS011;6504;53.766;9.626;2022-12-05T10:21:01;60.33;;;31.03;;
12871;SDS011;6504;53.766;9.626;2022-12-05T10:23:34;65.13;;;32.77;;
12871;SDS011;6504;53.766;9.626;2022-12-05T10:26:26;65.30;;;30.80;;
12871;SDS011;6504;53.766;9.626;2022-12-05T10:28:58;72.10;;;35.70;;
12871;SDS011;6504;53.766;9.626;2022-12-05T10:31:34;65.53;;;31.10;;
12871;SDS011;6504;53.766;9.626;2022-12-05T10:34:12;66.00;;;31.57;;
12871;SDS011;6504;53.766;9.626;2022-12-05T10:36:50;63.30;;;31.47;;
12871;SDS011;6504;53.766;9.626;2022-12-05T10:39:21;59.33;;;32.67;;
12871;SDS011;6504;53.766;9.626;2022-12-05T10:41:50;61.87;;;31.67;;
12871;SDS011;6504;53.766;9.626;2022-12-05T10:44:17;66.80;;;31.37;;
12871;SDS011;6504;53.766;9.626;2022-12-05T10:46:46;63.67;;;31.20;;
12871;SDS011;6504;53.766;9.626;2022-12-05T10:49:15;62.60;;;32.47;;
12871;SDS011;6504;53.766;9.626;2022-12-05T10:51:44;64.07;;;31.37;;
12871;SDS011;6504;53.766;9.626;2022-12-05T10:54:14;64.60;;;33.33;;
12871;SDS011;6504;53.766;9.626;2022-12-05T10:56:45;63.87;;;31.37;;
12871;SDS011;6504;53.766;9.626;2022-12-05T10:59:15;68.70;;;32.60;;
12871;SDS011;6504;53.766;9.626;2022-12-05T11:01:47;70.80;;;33.37;;
12871;SDS011;6504;53.766;9.626;2022-12-05T11:04:19;67.03;;;32.40;;
12871;SDS011;6504;53.766;9.626;2022-12-05T11:06:53;68.57;;;33.47;;
12871;SDS011;6504;53.766;9.626;2022-12-05T11:09:26;70.23;;;34.30;;
12871;SDS011;6504;53.766;9.626;2022-12-05T11:11:57;65.70;;;32.87;;
12871;SDS011;6504;53.766;9.626;2022-12-05T11:14:29;70.03;;;34.73;;
12871;SDS011;6504;53.766;9.626;2022-12-05T11:16:59;65.17;;;32.10;;
12871;SDS011;6504;53.766;9.626;2022-12-05T11:19:29;69.00;;;33.40;;
12871;SDS011;6504;53.766;9.626;2022-12-05T11:21:59;69.43;;;33.50;;
12871;SDS011;6504;53.766;9.626;2022-12-05T11:24:29;71.53;;;34.70;;
12871;SDS011;6504;53.766;9.626;2022-12-05T11:26:59;64.93;;;33.63;;
12871;SDS011;6504;53.766;9.626;2022-12-05T11:29:52;65.13;;;33.37;;
12871;SDS011;6504;53.766;9.626;2022-12-05T11:32:24;66.13;;;33.43;;
12871;SDS011;6504;53.766;9.626;2022-12-05T11:34:55;68.77;;;32.33;;
12871;SDS011;6504;53.766;9.626;2022-12-05T11:37:32;70.73;;;34.20;;
12871;SDS011;6504;53.766;9.626;2022-12-05T11:40:12;61.53;;;31.40;;
12871;SDS011;6504;53.766;9.626;2022-12-05T11:45:44;65.40;;;31.57;;
12871;SDS011;6504;53.766;9.626;2022-12-05T11:48:25;66.07;;;33.13;;
12871;SDS011;6504;53.766;9.626;2022-12-05T11:51:22;57.47;;;30.27;;
12871;SDS011;6504;53.766;9.626;2022-12-05T11:57:40;63.70;;;31.63;;
12871;SDS011;6504;53.766;9.626;2022-12-05T12:00:23;62.90;;;31.57;;
12871;SDS011;6504;53.766;9.626;2022-12-05T12:06:05;55.87;;;28.10;;
12871;SDS011;6504;53.766;9.626;2022-12-05T12:08:48;53.63;;;28.40;;
12871;SDS011;6504;53.766;9.626;2022-12-05T12:11:28;56.07;;;29.53;;
12871;SDS011;6504;53.766;9.626;2022-12-05T12:14:07;61.87;;;31.20;;
12871;SDS011;6504;53.766;9.626;2022-12-05T12:16:43;55.23;;;28.93;;
12871;SDS011;6504;53.766;9.626;2022-12-05T12:19:42;53.20;;;27.83;;
12871;SDS011;6504;53.766;9.626;2022-12-05T12:22:22;52.97;;;28.60;;
12871;SDS011;6504;53.766;9.626;2022-12-05T12:25:02;51.57;;;26.23;;
12871;SDS011;6504;53.766;9.626;2022-12-05T12:27:45;49.37;;;26.07;;
12871;SDS011;6504;53.766;9.626;2022-12-05T12:30:32;53.03;;;26.37;;
12871;SDS011;6504;53.766;9.626;2022-12-05T12:33:13;52.93;;;26.90;;
12871;SDS011;6504;53.766;9.626;2022-12-05T12:35:55;50.27;;;26.43;;
12871;SDS011;6504;53.766;9.626;2022-12-05T12:38:45;51.70;;;25.97;;
12871;SDS011;6504;53.766;9.626;2022-12-05T12:44:34;45.70;;;24.80;;
12871;SDS011;6504;53.766;9.626;2022-12-05T12:47:34;44.50;;;23.83;;
12871;SDS011;6504;53.766;9.626;2022-12-05T12:50:12;44.80;;;24.67;;
12871;SDS011;6504;53.766;9.626;2022-12-05T12:52:49;45.83;;;25.00;;
12871;SDS011;6504;53.766;9.626;2022-12-05T12:55:29;41.17;;;24.13;;
12871;SDS011;6504;53.766;9.626;2022-12-05T12:58:10;43.67;;;24.80;;
12871;SDS011;6504;53.766;9.626;2022-12-05T13:00:50;37.37;;;22.77;;
12871;SDS011;6504;53.766;9.626;2022-12-05T13:03:29;36.43;;;21.60;;
12871;SDS011;6504;53.766;9.626;2022-12-05T13:06:05;36.93;;;23.17;;
12871;SDS011;6504;53.766;9.626;2022-12-05T13:08:40;37.00;;;22.43;;
12871;SDS011;6504;53.766;9.626;2022-12-05T13:11:11;33.87;;;20.77;;
12871;SDS011;6504;53.766;9.626;2022-12-05T13:13:42;35.50;;;21.10;;
12871;SDS011;6504;53.766;9.626;2022-12-05T13:16:15;33.87;;;20.30;;
12871;SDS011;6504;53.766;9.626;2022-12-05T13:18:52;35.00;;;20.90;;
12871;SDS011;6504;53.766;9.626;2022-12-05T13:21:21;34.43;;;20.03;;
12871;SDS011;6504;53.766;9.626;2022-12-05T13:23:50;33.80;;;21.37;;
12871;SDS011;6504;53.766;9.626;2022-12-05T13:26:21;33.43;;;21.60;;
12871;SDS011;6504;53.766;9.626;2022-12-05T13:28:50;34.37;;;20.40;;
12871;SDS011;6504;53.766;9.626;2022-12-05T13:31:33;34.70;;;19.57;;
12871;SDS011;6504;53.766;9.626;2022-12-05T13:34:03;29.00;;;19.37;;
12871;SDS011;6504;53.766;9.626;2022-12-05T13:36:37;31.97;;;19.80;;
12871;SDS011;6504;53.766;9.626;2022-12-05T13:39:24;32.47;;;20.00;;
12871;SDS011;6504;53.766;9.626;2022-12-05T13:42:18;30.40;;;19.57;;
12871;SDS011;6504;53.766;9.626;2022-12-05T13:44:49;29.87;;;18.20;;
12871;SDS011;6504;53.766;9.626;2022-12-05T13:47:25;26.53;;;18.27;;
12871;SDS011;6504;53.766;9.626;2022-12-05T13:50:02;31.63;;;19.93;;
12871;SDS011;6504;53.766;9.626;2022-12-05T13:52:38;33.87;;;22.07;;
12871;SDS011;6504;53.766;9.626;2022-12-05T13:55:14;37.43;;;20.60;;
12871;SDS011;6504;53.766;9.626;2022-12-05T13:57:50;34.37;;;20.30;;
12871;SDS011;6504;53.766;9.626;2022-12-05T14:00:30;35.47;;;22.00;;
12871;SDS011;6504;53.766;9.626;2022-12-05T14:03:03;36.87;;;23.70;;
12871;SDS011;6504;53.766;9.626;2022-12-05T14:05:38;36.70;;;21.53;;
12871;SDS011;6504;53.766;9.626;2022-12-05T14:11:21;34.33;;;20.00;;
12871;SDS011;6504;53.766;9.626;2022-12-05T14:13:50;35.70;;;20.63;;
12871;SDS011;6504;53.766;9.626;2022-12-05T14:22:08;35.27;;;21.67;;
12871;SDS011;6504;53.766;9.626;2022-12-05T14:24:54;33.33;;;21.67;;
12871;SDS011;6504;53.766;9.626;2022-12-05T14:27:30;38.17;;;22.47;;
12871;SDS011;6504;53.766;9.626;2022-12-05T14:30:15;32.60;;;21.97;;
12871;SDS011;6504;53.766;9.626;2022-12-05T14:32:49;32.10;;;19.53;;
12871;SDS011;6504;53.766;9.626;2022-12-05T14:35:20;33.20;;;20.67;;
12871;SDS011;6504;53.766;9.626;2022-12-05T14:37:54;35.10;;;20.93;;
12871;SDS011;6504;53.766;9.626;2022-12-05T14:40:27;34.07;;;21.43;;
12871;SDS011;6504;53.766;9.626;2022-12-05T14:42:58;31.67;;;20.07;;
12871;SDS011;6504;53.766;9.626;2022-12-05T14:45:30;32.93;;;20.67;;
12871;SDS011;6504;53.766;9.626;2022-12-05T14:48:02;36.53;;;21.47;;
12871;SDS011;6504;53.766;9.626;2022-12-05T14:50:34;35.20;;;22.30;;
12871;SDS011;6504;53.766;9.626;2022-12-05T14:56:05;34.50;;;20.70;;
12871;SDS011;6504;53.766;9.626;2022-12-05T14:58:43;36.77;;;20.90;;
12871;SDS011;6504;53.766;9.626;2022-12-05T15:01:16;37.33;;;21.50;;
12871;SDS011;6504;53.766;9.626;2022-12-05T15:04:02;33.50;;;20.87;;
12871;SDS011;6504;53.766;9.626;2022-12-05T15:06:44;33.33;;;20.23;;
12871;SDS011;6504;53.766;9.626;2022-12-05T15:09:30;35.87;;;20.57;;
12871;SDS011;6504;53.766;9.626;2022-12-05T15:12:12;34.53;;;19.40;;
12871;SDS011;6504;53.766;9.626;2022-12-05T15:14:44;34.93;;;20.50;;
12871;SDS011;6504;53.766;9.626;2022-12-05T15:17:16;30.77;;;19.50;;
12871;SDS011;6504;53.766;9.626;2022-12-05T15:19:50;30.67;;;20.03;;
12871;SDS011;6504;53.766;9.626;2022-12-05T15:22:22;35.57;;;19.93;;
12871;SDS011;6504;53.766;9.626;2022-12-05T15:24:54;34.77;;;21.13;;
12871;SDS011;6504;53.766;9.626;2022-12-05T15:27:22;32.07;;;19.40;;
12871;SDS011;6504;53.766;9.626;2022-12-05T15:29:52;28.50;;;19.13;;
12871;SDS011;6504;53.766;9.626;2022-12-05T15:32:23;29.33;;;18.57;;
12871;SDS011;6504;53.766;9.626;2022-12-05T15:34:55;32.03;;;20.70;;
12871;SDS011;6504;53.766;9.626;2022-12-05T15:37:28;31.63;;;19.57;;
12871;SDS011;6504;53.766;9.626;2022-12-05T15:40:06;29.13;;;19.87;;